sensor_id;sensor_type;location;lat;lon;timestamp;temperature;humidity
24645;DHT22;12780;45.502;9.146;2022-12-07T00:01:30;6.30;99.90
24645;DHT22;12780;45.502;9.146;2022-12-07T00:03:57;6.30;99.90
24645;DHT22;12780;45.502;9.146;2022-12-07T00:06:29;6.30;99.90
24645;DHT22;12780;45.502;9.146;2022-12-07T00:08:54;6.30;99.90
24645;DHT22;12780;45.502;9.146;2022-12-07T00:11:21;6.30;99.90
24645;DHT22;12780;45.502;9.146;2022-12-07T00:13:54;6.20;99.90
24645;DHT22;12780;45.502;9.146;2022-12-07T00:16:24;6.20;99.90
24645;DHT22;12780;45.502;9.146;2022-12-07T00:18:50;6.20;99.90
24645;DHT22;12780;45.502;9.146;2022-12-07T00:21:21;6.10;99.90
24645;DHT22;12780;45.502;9.146;2022-12-07T00:23:49;6.10;99.90
24645;DHT22;12780;45.502;9.146;2022-12-07T00:26:20;6.10;99.90
24645;DHT22;12780;45.502;9.146;2022-12-07T00:28:47;6.20;99.90
24645;DHT22;12780;45.502;9.146;2022-12-07T00:31:14;6.10;99.90
24645;DHT22;12780;45.502;9.146;2022-12-07T00:33:40;6.20;99.90
24645;DHT22;12780;45.502;9.146;2022-12-07T00:36:08;6.20;99.90
24645;DHT22;12780;45.502;9.146;2022-12-07T00:38:35;6.20;99.90
24645;DHT22;12780;45.502;9.146;2022-12-07T00:41:10;6.20;99.90
24645;DHT22;12780;45.502;9.146;2022-12-07T00:43:36;6.20;99.90
24645;DHT22;12780;45.502;9.146;2022-12-07T00:46:01;6.10;99.90
24645;DHT22;12780;45.502;9.146;2022-12-07T00:48:27;6.10;99.90
24645;DHT22;12780;45.502;9.146;2022-12-07T00:50:53;6.00;99.90
24645;DHT22;12780;45.502;9.146;2022-12-07T00:53:18;6.00;99.90
24645;DHT22;12780;45.502;9.146;2022-12-07T00:55:45;6.00;99.90
24645;DHT22;12780;45.502;9.146;2022-12-07T00:58:11;6.00;99.90
24645;DHT22;12780;45.502;9.146;2022-12-07T01:00:38;6.00;99.90
24645;DHT22;12780;45.502;9.146;2022-12-07T01:03:05;5.90;99.90
24645;DHT22;12780;45.502;9.146;2022-12-07T01:05:30;5.90;99.90
24645;DHT22;12780;45.502;9.146;2022-12-07T01:07:56;5.90;99.90
24645;DHT22;12780;45.502;9.146;2022-12-07T01:10:22;5.90;99.90
24645;DHT22;12780;45.502;9.146;2022-12-07T01:12:47;6.00;99.90
24645;DHT22;12780;45.502;9.146;2022-12-07T01:15:13;6.00;99.90
24645;DHT22;12780;45.502;9.146;2022-12-07T01:17:39;6.00;99.90
24645;DHT22;12780;45.502;9.146;2022-12-07T01:20:05;6.00;99.90
24645;DHT22;12780;45.502;9.146;2022-12-07T01:22:31;6.00;99.90
24645;DHT22;12780;45.502;9.146;2022-12-07T01:25:01;6.00;99.90
24645;DHT22;12780;45.502;9.146;2022-12-07T01:27:27;6.00;99.90
24645;DHT22;12780;45.502;9.146;2022-12-07T01:29:52;6.10;99.90
24645;DHT22;12780;45.502;9.146;2022-12-07T01:32:18;5.90;99.90
24645;DHT22;12780;45.502;9.146;2022-12-07T01:34:43;5.90;99.90
24645;DHT22;12780;45.502;9.146;2022-12-07T01:37:09;5.90;99.90
24645;DHT22;12780;45.502;9.146;2022-12-07T01:39:34;6.00;99.90
24645;DHT22;12780;45.502;9.146;2022-12-07T01:42:00;6.00;99.90
24645;DHT22;12780;45.502;9.146;2022-12-07T01:44:29;6.00;99.90
24645;DHT22;12780;45.502;9.146;2022-12-07T01:49:49;5.90;99.90
24645;DHT22;12780;45.502;9.146;2022-12-07T01:52:16;5.80;99.90
24645;DHT22;12780;45.502;9.146;2022-12-07T01:54:44;5.80;99.90
24645;DHT22;12780;45.502;9.146;2022-12-07T01:57:12;5.80;99.90
24645;DHT22;12780;45.502;9.146;2022-12-07T01:59:39;5.80;99.90
24645;DHT22;12780;45.502;9.146;2022-12-07T02:02:10;5.80;99.90
24645;DHT22;12780;45.502;9.146;2022-12-07T02:04:37;5.80;99.90
24645;DHT22;12780;45.502;9.146;2022-12-07T02:07:04;5.80;99.90
24645;DHT22;12780;45.502;9.146;2022-12-07T02:09:30;5.80;99.90
24645;DHT22;12780;45.502;9.146;2022-12-07T02:11:56;5.80;99.90
24645;DHT22;12780;45.502;9.146;2022-12-07T02:14:22;5.80;99.90
24645;DHT22;12780;45.502;9.146;2022-12-07T02:17:03;5.80;99.90
24645;DHT22;12780;45.502;9.146;2022-12-07T02:28:28;5.70;99.90
24645;DHT22;12780;45.502;9.146;2022-12-07T02:30:57;5.70;99.90
24645;DHT22;12780;45.502;9.146;2022-12-07T02:33:31;5.60;99.90
24645;DHT22;12780;45.502;9.146;2022-12-07T02:36:24;5.60;99.90
24645;DHT22;12780;45.502;9.146;2022-12-07T02:38:58;5.60;99.90
24645;DHT22;12780;45.502;9.146;2022-12-07T02:41:33;5.60;99.90
24645;DHT22;12780;45.502;9.146;2022-12-07T02:44:07;5.60;99.90
24645;DHT22;12780;45.502;9.146;2022-12-07T02:46:37;5.60;99.90
24645;DHT22;12780;45.502;9.146;2022-12-07T02:49:04;5.60;99.90
24645;DHT22;12780;45.502;9.146;2022-12-07T02:51:31;5.50;99.90
24645;DHT22;12780;45.502;9.146;2022-12-07T02:53:57;5.50;99.90
24645;DHT22;12780;45.502;9.146;2022-12-07T03:02:35;5.50;99.90
24645;DHT22;12780;45.502;9.146;2022-12-07T03:15:49;5.50;99.90
24645;DHT22;12780;45.502;9.146;2022-12-07T03:18:18;5.50;99.90
24645;DHT22;12780;45.502;9.146;2022-12-07T03:20:46;5.40;99.90
24645;DHT22;12780;45.502;9.146;2022-12-07T03:23:16;5.50;99.90
24645;DHT22;12780;45.502;9.146;2022-12-07T03:25:46;5.50;99.90
24645;DHT22;12780;45.502;9.146;2022-12-07T03:28:14;5.40;99.90
24645;DHT22;12780;45.502;9.146;2022-12-07T03:30:49;5.40;99.90
24645;DHT22;12780;45.502;9.146;2022-12-07T03:33:22;5.40;99.90
24645;DHT22;12780;45.502;9.146;2022-12-07T03:36:01;5.40;99.90
24645;DHT22;12780;45.502;9.146;2022-12-07T03:38:38;5.40;99.90
24645;DHT22;12780;45.502;9.146;2022-12-07T03:44:02;5.40;99.90
24645;DHT22;12780;45.502;9.146;2022-12-07T03:46:50;5.40;99.90
24645;DHT22;12780;45.502;9.146;2022-12-07T03:49:46;5.40;99.90
24645;DHT22;12780;45.502;9.146;2022-12-07T03:55:08;5.30;99.90
24645;DHT22;12780;45.502;9.146;2022-12-07T03:57:36;5.30;99.90
24645;DHT22;12780;45.502;9.146;2022-12-07T04:00:04;5.30;99.90
24645;DHT22;12780;45.502;9.146;2022-12-07T04:02:30;5.30;99.90
24645;DHT22;12780;45.502;9.146;2022-12-07T04:04:57;5.30;99.90
24645;DHT22;12780;45.502;9.146;2022-12-07T04:07:23;5.20;99.90
24645;DHT22;12780;45.502;9.146;2022-12-07T04:09:48;5.30;99.90
24645;DHT22;12780;45.502;9.146;2022-12-07T04:12:14;5.20;99.90
24645;DHT22;12780;45.502;9.146;2022-12-07T04:14:39;5.20;99.90
24645;DHT22;12780;45.502;9.146;2022-12-07T04:17:05;5.20;99.90
24645;DHT22;12780;45.502;9.146;2022-12-07T04:19:32;5.10;99.90
24645;DHT22;12780;45.502;9.146;2022-12-07T04:21:59;5.10;99.90
24645;DHT22;12780;45.502;9.146;2022-12-07T04:24:25;5.20;99.90
24645;DHT22;12780;45.502;9.146;2022-12-07T04:26:51;5.20;99.90
24645;DHT22;12780;45.502;9.146;2022-12-07T04:29:17;5.20;99.90
24645;DHT22;12780;45.502;9.146;2022-12-07T04:31:44;5.20;99.90
24645;DHT22;12780;45.502;9.146;2022-12-07T04:34:10;5.20;99.90
24645;DHT22;12780;45.502;9.146;2022-12-07T04:36:36;5.20;99.90
24645;DHT22;12780;45.502;9.146;2022-12-07T04:39:03;5.30;99.90
24645;DHT22;12780;45.502;9.146;2022-12-07T04:41:29;5.20;99.90
24645;DHT22;12780;45.502;9.146;2022-12-07T04:43:56;5.30;99.90
24645;DHT22;12780;45.502;9.146;2022-12-07T04:46:23;5.20;99.90
24645;DHT22;12780;45.502;9.146;2022-12-07T04:48:49;5.20;99.90
24645;DHT22;12780;45.502;9.146;2022-12-07T04:51:26;5.20;99.90
24645;DHT22;12780;45.502;9.146;2022-12-07T04:53:53;5.20;99.90
24645;DHT22;12780;45.502;9.146;2022-12-07T04:56:19;5.30;99.90
24645;DHT22;12780;45.502;9.146;2022-12-07T04:58:46;5.30;99.90
24645;DHT22;12780;45.502;9.146;2022-12-07T05:01:13;5.20;99.90
24645;DHT22;12780;45.502;9.146;2022-12-07T05:03:39;5.20;99.90
24645;DHT22;12780;45.502;9.146;2022-12-07T05:06:05;5.10;99.90
24645;DHT22;12780;45.502;9.146;2022-12-07T05:08:32;5.10;99.90
24645;DHT22;12780;45.502;9.146;2022-12-07T05:10:58;5.00;99.90
24645;DHT22;12780;45.502;9.146;2022-12-07T05:13:23;5.10;99.90
24645;DHT22;12780;45.502;9.146;2022-12-07T05:15:49;5.10;99.90
24645;DHT22;12780;45.502;9.146;2022-12-07T05:18:15;5.10;99.90
24645;DHT22;12780;45.502;9.146;2022-12-07T05:20:41;5.10;99.90
24645;DHT22;12780;45.502;9.146;2022-12-07T05:23:07;5.10;99.90
24645;DHT22;12780;45.502;9.146;2022-12-07T05:25:33;5.10;99.90
24645;DHT22;12780;45.502;9.146;2022-12-07T05:27:59;5.10;99.90
24645;DHT22;12780;45.502;9.146;2022-12-07T05:30:25;5.10;99.90
24645;DHT22;12780;45.502;9.146;2022-12-07T05:32:51;5.10;99.90
24645;DHT22;12780;45.502;9.146;2022-12-07T05:35:17;5.00;99.90
24645;DHT22;12780;45.502;9.146;2022-12-07T05:37:43;5.00;99.90
24645;DHT22;12780;45.502;9.146;2022-12-07T05:40:09;5.00;99.90
24645;DHT22;12780;45.502;9.146;2022-12-07T05:42:35;5.00;99.90
24645;DHT22;12780;45.502;9.146;2022-12-07T05:45:01;5.00;99.90
24645;DHT22;12780;45.502;9.146;2022-12-07T05:47:27;5.10;99.90
24645;DHT22;12780;45.502;9.146;2022-12-07T05:49:52;5.00;99.90
24645;DHT22;12780;45.502;9.146;2022-12-07T05:52:18;5.00;99.90
24645;DHT22;12780;45.502;9.146;2022-12-07T05:54:43;5.00;99.90
24645;DHT22;12780;45.502;9.146;2022-12-07T05:57:09;5.00;99.90
24645;DHT22;12780;45.502;9.146;2022-12-07T05:59:35;5.00;99.90
24645;DHT22;12780;45.502;9.146;2022-12-07T06:02:03;5.00;99.90
24645;DHT22;12780;45.502;9.146;2022-12-07T06:04:32;5.00;99.90
24645;DHT22;12780;45.502;9.146;2022-12-07T06:06:58;5.00;99.90
24645;DHT22;12780;45.502;9.146;2022-12-07T06:09:25;5.00;99.90
24645;DHT22;12780;45.502;9.146;2022-12-07T06:11:51;5.00;99.90
24645;DHT22;12780;45.502;9.146;2022-12-07T06:14:35;5.00;99.90
24645;DHT22;12780;45.502;9.146;2022-12-07T06:17:00;5.00;99.90
24645;DHT22;12780;45.502;9.146;2022-12-07T06:19:26;4.90;99.90
24645;DHT22;12780;45.502;9.146;2022-12-07T06:21:52;4.90;99.90
24645;DHT22;12780;45.502;9.146;2022-12-07T06:24:18;5.00;99.90
24645;DHT22;12780;45.502;9.146;2022-12-07T06:26:44;5.00;99.90
24645;DHT22;12780;45.502;9.146;2022-12-07T06:29:11;4.90;99.90
24645;DHT22;12780;45.502;9.146;2022-12-07T06:31:37;4.90;99.90
24645;DHT22;12780;45.502;9.146;2022-12-07T06:34:15;4.90;99.90
24645;DHT22;12780;45.502;9.146;2022-12-07T06:36:41;4.90;99.90
24645;DHT22;12780;45.502;9.146;2022-12-07T06:39:07;4.90;99.90
24645;DHT22;12780;45.502;9.146;2022-12-07T06:41:35;5.00;99.90
24645;DHT22;12780;45.502;9.146;2022-12-07T06:44:01;5.10;99.90
24645;DHT22;12780;45.502;9.146;2022-12-07T06:46:26;4.90;99.90
24645;DHT22;12780;45.502;9.146;2022-12-07T06:48:52;4.90;99.90
24645;DHT22;12780;45.502;9.146;2022-12-07T06:51:17;5.00;99.90
24645;DHT22;12780;45.502;9.146;2022-12-07T06:53:43;5.00;99.90
24645;DHT22;12780;45.502;9.146;2022-12-07T06:56:09;5.00;99.90
24645;DHT22;12780;45.502;9.146;2022-12-07T06:58:34;5.00;99.90
24645;DHT22;12780;45.502;9.146;2022-12-07T07:01:00;5.00;99.90
24645;DHT22;12780;45.502;9.146;2022-12-07T07:03:25;4.90;99.90
24645;DHT22;12780;45.502;9.146;2022-12-07T07:05:51;5.00;99.90
24645;DHT22;12780;45.502;9.146;2022-12-07T07:08:16;5.00;99.90
24645;DHT22;12780;45.502;9.146;2022-12-07T07:10:42;5.00;99.90
24645;DHT22;12780;45.502;9.146;2022-12-07T07:13:08;5.00;99.90
24645;DHT22;12780;45.502;9.146;2022-12-07T07:15:34;5.00;99.90
24645;DHT22;12780;45.502;9.146;2022-12-07T07:18:00;4.90;99.90
24645;DHT22;12780;45.502;9.146;2022-12-07T07:20:26;4.80;99.90
24645;DHT22;12780;45.502;9.146;2022-12-07T07:22:54;4.70;99.90
24645;DHT22;12780;45.502;9.146;2022-12-07T07:25:20;4.60;99.90
24645;DHT22;12780;45.502;9.146;2022-12-07T07:27:45;4.50;99.90
24645;DHT22;12780;45.502;9.146;2022-12-07T07:30:11;4.50;99.90
24645;DHT22;12780;45.502;9.146;2022-12-07T07:32:37;4.40;99.90
24645;DHT22;12780;45.502;9.146;2022-12-07T07:35:03;4.50;99.90
24645;DHT22;12780;45.502;9.146;2022-12-07T07:37:29;4.40;99.90
24645;DHT22;12780;45.502;9.146;2022-12-07T07:39:54;4.40;99.90
24645;DHT22;12780;45.502;9.146;2022-12-07T07:42:20;4.50;99.90
24645;DHT22;12780;45.502;9.146;2022-12-07T07:44:46;4.60;99.90
24645;DHT22;12780;45.502;9.146;2022-12-07T07:47:11;4.60;99.90
24645;DHT22;12780;45.502;9.146;2022-12-07T07:49:37;4.60;99.90
24645;DHT22;12780;45.502;9.146;2022-12-07T07:52:02;4.50;99.90
24645;DHT22;12780;45.502;9.146;2022-12-07T07:54:28;4.60;99.90
24645;DHT22;12780;45.502;9.146;2022-12-07T07:56:54;4.50;99.90
24645;DHT22;12780;45.502;9.146;2022-12-07T07:59:19;4.60;99.90
24645;DHT22;12780;45.502;9.146;2022-12-07T08:01:45;4.70;99.90
24645;DHT22;12780;45.502;9.146;2022-12-07T08:04:11;4.70;99.90
24645;DHT22;12780;45.502;9.146;2022-12-07T08:06:36;4.70;99.90
24645;DHT22;12780;45.502;9.146;2022-12-07T08:09:02;4.80;99.90
24645;DHT22;12780;45.502;9.146;2022-12-07T08:11:28;4.70;99.90
24645;DHT22;12780;45.502;9.146;2022-12-07T08:13:54;4.90;99.90
24645;DHT22;12780;45.502;9.146;2022-12-07T08:16:19;4.70;99.90
24645;DHT22;12780;45.502;9.146;2022-12-07T08:18:45;4.80;99.90
24645;DHT22;12780;45.502;9.146;2022-12-07T08:21:13;4.80;99.90
24645;DHT22;12780;45.502;9.146;2022-12-07T08:23:39;4.80;99.90
24645;DHT22;12780;45.502;9.146;2022-12-07T08:26:07;4.80;99.90
24645;DHT22;12780;45.502;9.146;2022-12-07T08:28:33;4.80;99.90
24645;DHT22;12780;45.502;9.146;2022-12-07T08:31:04;4.90;99.90
24645;DHT22;12780;45.502;9.146;2022-12-07T08:33:31;4.90;99.90
24645;DHT22;12780;45.502;9.146;2022-12-07T08:36:07;4.90;99.90
24645;DHT22;12780;45.502;9.146;2022-12-07T08:38:35;4.80;99.90
24645;DHT22;12780;45.502;9.146;2022-12-07T08:41:01;4.90;99.90
24645;DHT22;12780;45.502;9.146;2022-12-07T08:43:26;4.90;99.90
24645;DHT22;12780;45.502;9.146;2022-12-07T08:46:08;4.90;99.90
24645;DHT22;12780;45.502;9.146;2022-12-07T08:48:41;5.00;99.90
24645;DHT22;12780;45.502;9.146;2022-12-07T08:51:09;5.00;99.90
24645;DHT22;12780;45.502;9.146;2022-12-07T08:53:35;5.00;99.90
24645;DHT22;12780;45.502;9.146;2022-12-07T08:56:02;5.00;99.90
24645;DHT22;12780;45.502;9.146;2022-12-07T08:58:28;5.10;99.90
24645;DHT22;12780;45.502;9.146;2022-12-07T09:00:53;5.20;99.90
24645;DHT22;12780;45.502;9.146;2022-12-07T09:03:19;5.30;99.90
24645;DHT22;12780;45.502;9.146;2022-12-07T09:05:45;5.20;99.90
24645;DHT22;12780;45.502;9.146;2022-12-07T09:08:10;5.00;99.90
24645;DHT22;12780;45.502;9.146;2022-12-07T09:10:36;4.90;99.90
24645;DHT22;12780;45.502;9.146;2022-12-07T09:13:02;5.00;99.90
24645;DHT22;12780;45.502;9.146;2022-12-07T09:15:28;5.10;99.90
24645;DHT22;12780;45.502;9.146;2022-12-07T09:17:54;4.90;99.90
24645;DHT22;12780;45.502;9.146;2022-12-07T09:20:20;5.00;99.90
24645;DHT22;12780;45.502;9.146;2022-12-07T09:22:46;4.90;99.90
24645;DHT22;12780;45.502;9.146;2022-12-07T09:25:11;4.90;99.90
24645;DHT22;12780;45.502;9.146;2022-12-07T09:27:37;4.80;99.90
24645;DHT22;12780;45.502;9.146;2022-12-07T09:30:04;4.80;99.90
24645;DHT22;12780;45.502;9.146;2022-12-07T09:32:30;4.90;99.90
24645;DHT22;12780;45.502;9.146;2022-12-07T09:34:55;4.80;99.90
24645;DHT22;12780;45.502;9.146;2022-12-07T09:37:21;4.80;99.90
24645;DHT22;12780;45.502;9.146;2022-12-07T09:39:47;5.00;99.90
24645;DHT22;12780;45.502;9.146;2022-12-07T09:42:36;5.10;99.90
24645;DHT22;12780;45.502;9.146;2022-12-07T09:45:06;5.30;99.90
24645;DHT22;12780;45.502;9.146;2022-12-07T09:47:32;5.40;99.90
24645;DHT22;12780;45.502;9.146;2022-12-07T09:50:04;5.50;99.90
24645;DHT22;12780;45.502;9.146;2022-12-07T09:52:31;5.60;99.90
24645;DHT22;12780;45.502;9.146;2022-12-07T09:54:57;5.80;99.90
24645;DHT22;12780;45.502;9.146;2022-12-07T09:57:29;5.80;99.90
24645;DHT22;12780;45.502;9.146;2022-12-07T10:00:00;5.90;99.90
24645;DHT22;12780;45.502;9.146;2022-12-07T10:02:44;6.00;99.90
24645;DHT22;12780;45.502;9.146;2022-12-07T10:05:18;6.00;99.90
24645;DHT22;12780;45.502;9.146;2022-12-07T10:07:45;6.00;99.90
24645;DHT22;12780;45.502;9.146;2022-12-07T10:10:31;6.10;99.90
24645;DHT22;12780;45.502;9.146;2022-12-07T10:18:26;6.20;99.90
24645;DHT22;12780;45.502;9.146;2022-12-07T10:26:28;6.20;99.90
24645;DHT22;12780;45.502;9.146;2022-12-07T10:28:55;6.20;99.90
24645;DHT22;12780;45.502;9.146;2022-12-07T10:31:22;6.30;99.90
24645;DHT22;12780;45.502;9.146;2022-12-07T10:33:51;6.30;99.90
24645;DHT22;12780;45.502;9.146;2022-12-07T10:36:33;6.30;99.90
24645;DHT22;12780;45.502;9.146;2022-12-07T10:39:11;6.30;99.90
24645;DHT22;12780;45.502;9.146;2022-12-07T10:41:58;6.50;99.90
24645;DHT22;12780;45.502;9.146;2022-12-07T10:44:26;6.60;99.90
24645;DHT22;12780;45.502;9.146;2022-12-07T10:47:21;6.60;99.90
24645;DHT22;12780;45.502;9.146;2022-12-07T10:55:37;6.70;99.90
24645;DHT22;12780;45.502;9.146;2022-12-07T11:01:01;6.80;99.90
24645;DHT22;12780;45.502;9.146;2022-12-07T11:03:49;6.80;99.90
24645;DHT22;12780;45.502;9.146;2022-12-07T11:06:44;6.80;99.90
24645;DHT22;12780;45.502;9.146;2022-12-07T11:12:15;6.70;99.90
24645;DHT22;12780;45.502;9.146;2022-12-07T11:25:58;6.90;99.90
24645;DHT22;12780;45.502;9.146;2022-12-07T11:34:04;7.30;99.90
24645;DHT22;12780;45.502;9.146;2022-12-07T11:37:13;7.40;99.90
24645;DHT22;12780;45.502;9.146;2022-12-07T11:39:50;7.50;99.90
24645;DHT22;12780;45.502;9.146;2022-12-07T11:45:02;7.40;99.90
24645;DHT22;12780;45.502;9.146;2022-12-07T11:47:51;7.60;99.90
24645;DHT22;12780;45.502;9.146;2022-12-07T11:50:25;7.50;99.90
24645;DHT22;12780;45.502;9.146;2022-12-07T11:53:01;7.40;99.90
24645;DHT22;12780;45.502;9.146;2022-12-07T11:55:48;7.50;99.90
24645;DHT22;12780;45.502;9.146;2022-12-07T12:01:01;7.50;99.90
24645;DHT22;12780;45.502;9.146;2022-12-07T12:03:34;7.60;99.90
24645;DHT22;12780;45.502;9.146;2022-12-07T12:06:00;7.60;99.90
24645;DHT22;12780;45.502;9.146;2022-12-07T12:08:30;7.70;99.90
24645;DHT22;12780;45.502;9.146;2022-12-07T12:19:18;7.70;99.90
24645;DHT22;12780;45.502;9.146;2022-12-07T12:21:46;7.70;99.90
24645;DHT22;12780;45.502;9.146;2022-12-07T12:24:17;7.80;99.90
24645;DHT22;12780;45.502;9.146;2022-12-07T12:27:14;7.70;99.90
24645;DHT22;12780;45.502;9.146;2022-12-07T12:29:41;7.70;99.90
24645;DHT22;12780;45.502;9.146;2022-12-07T12:32:18;7.70;99.90
24645;DHT22;12780;45.502;9.146;2022-12-07T12:42:48;7.60;99.90
24645;DHT22;12780;45.502;9.146;2022-12-07T12:45:43;7.60;99.90
24645;DHT22;12780;45.502;9.146;2022-12-07T12:48:28;7.60;99.90
24645;DHT22;12780;45.502;9.146;2022-12-07T12:51:35;7.70;99.90
24645;DHT22;12780;45.502;9.146;2022-12-07T12:54:08;7.70;99.90
24645;DHT22;12780;45.502;9.146;2022-12-07T12:57:27;7.70;99.90
24645;DHT22;12780;45.502;9.146;2022-12-07T12:59:34;7.70;99.90
24645;DHT22;12780;45.502;9.146;2022-12-07T13:08:00;7.70;99.90
24645;DHT22;12780;45.502;9.146;2022-12-07T13:31:57;7.70;99.90
24645;DHT22;12780;45.502;9.146;2022-12-07T13:34:40;7.60;99.90
24645;DHT22;12780;45.502;9.146;2022-12-07T13:37:24;7.70;99.90
24645;DHT22;12780;45.502;9.146;2022-12-07T13:39:55;7.70;99.90
24645;DHT22;12780;45.502;9.146;2022-12-07T13:42:29;7.70;99.90
24645;DHT22;12780;45.502;9.146;2022-12-07T13:44:55;7.70;99.90
24645;DHT22;12780;45.502;9.146;2022-12-07T13:47:38;7.80;99.90
24645;DHT22;12780;45.502;9.146;2022-12-07T13:50:27;7.80;99.90
24645;DHT22;12780;45.502;9.146;2022-12-07T13:52:57;7.80;99.90
24645;DHT22;12780;45.502;9.146;2022-12-07T13:55:23;7.80;99.90
24645;DHT22;12780;45.502;9.146;2022-12-07T13:57:54;7.80;99.90
24645;DHT22;12780;45.502;9.146;2022-12-07T14:00:22;7.80;99.90
24645;DHT22;12780;45.502;9.146;2022-12-07T14:05:30;7.80;99.90
24645;DHT22;12780;45.502;9.146;2022-12-07T14:07:57;7.80;99.90
24645;DHT22;12780;45.502;9.146;2022-12-07T14:13:34;8.00;99.90
24645;DHT22;12780;45.502;9.146;2022-12-07T14:16:01;7.90;99.90
24645;DHT22;12780;45.502;9.146;2022-12-07T14:18:37;7.90;99.90
24645;DHT22;12780;45.502;9.146;2022-12-07T14:21:26;7.90;99.90
24645;DHT22;12780;45.502;9.146;2022-12-07T14:24:22;7.90;99.90
24645;DHT22;12780;45.502;9.146;2022-12-07T14:26:49;8.00;99.90
24645;DHT22;12780;45.502;9.146;2022-12-07T14:29:33;8.00;99.90
24645;DHT22;12780;45.502;9.146;2022-12-07T14:32:19;7.90;99.90
24645;DHT22;12780;45.502;9.146;2022-12-07T14:35:08;8.00;99.90
24645;DHT22;12780;45.502;9.146;2022-12-07T14:37:35;7.90;99.90
24645;DHT22;12780;45.502;9.146;2022-12-07T14:40:01;8.00;99.90
24645;DHT22;12780;45.502;9.146;2022-12-07T14:42:29;8.00;99.90
24645;DHT22;12780;45.502;9.146;2022-12-07T14:44:56;7.90;99.90
24645;DHT22;12780;45.502;9.146;2022-12-07T14:47:23;7.90;99.90
24645;DHT22;12780;45.502;9.146;2022-12-07T14:49:49;7.80;99.90
24645;DHT22;12780;45.502;9.146;2022-12-07T14:52:26;7.80;99.90
24645;DHT22;12780;45.502;9.146;2022-12-07T14:54:52;7.80;99.90
24645;DHT22;12780;45.502;9.146;2022-12-07T14:57:18;7.80;99.90
24645;DHT22;12780;45.502;9.146;2022-12-07T14:59:44;7.80;99.90
24645;DHT22;12780;45.502;9.146;2022-12-07T15:02:12;7.80;99.90
24645;DHT22;12780;45.502;9.146;2022-12-07T15:04:38;7.70;99.90
24645;DHT22;12780;45.502;9.146;2022-12-07T15:07:05;7.60;99.90
24645;DHT22;12780;45.502;9.146;2022-12-07T15:09:31;7.60;99.90
24645;DHT22;12780;45.502;9.146;2022-12-07T15:11:57;7.60;99.90
24645;DHT22;12780;45.502;9.146;2022-12-07T15:14:23;7.70;99.90
24645;DHT22;12780;45.502;9.146;2022-12-07T15:16:48;7.60;99.90
24645;DHT22;12780;45.502;9.146;2022-12-07T15:19:16;7.50;99.90
24645;DHT22;12780;45.502;9.146;2022-12-07T15:21:42;7.50;99.90
24645;DHT22;12780;45.502;9.146;2022-12-07T15:24:10;7.50;99.90
24645;DHT22;12780;45.502;9.146;2022-12-07T15:26:36;7.50;99.90
24645;DHT22;12780;45.502;9.146;2022-12-07T15:29:02;7.50;99.90
24645;DHT22;12780;45.502;9.146;2022-12-07T15:31:28;7.40;99.90
24645;DHT22;12780;45.502;9.146;2022-12-07T15:33:53;7.40;99.90
24645;DHT22;12780;45.502;9.146;2022-12-07T15:36:21;7.40;99.90
24645;DHT22;12780;45.502;9.146;2022-12-07T15:38:48;7.50;99.90
24645;DHT22;12780;45.502;9.146;2022-12-07T15:41:14;7.40;99.90
24645;DHT22;12780;45.502;9.146;2022-12-07T15:43:39;7.40;99.90
24645;DHT22;12780;45.502;9.146;2022-12-07T15:46:28;7.40;99.90
24645;DHT22;12780;45.502;9.146;2022-12-07T15:48:54;7.40;99.90
24645;DHT22;12780;45.502;9.146;2022-12-07T15:51:19;7.40;99.90
24645;DHT22;12780;45.502;9.146;2022-12-07T15:53:45;7.30;99.90
24645;DHT22;12780;45.502;9.146;2022-12-07T15:56:11;7.30;99.90
24645;DHT22;12780;45.502;9.146;2022-12-07T15:58:37;7.30;99.90
24645;DHT22;12780;45.502;9.146;2022-12-07T16:01:13;7.30;99.90
24645;DHT22;12780;45.502;9.146;2022-12-07T16:03:39;7.30;99.90
24645;DHT22;12780;45.502;9.146;2022-12-07T16:06:06;7.20;99.90
24645;DHT22;12780;45.502;9.146;2022-12-07T16:08:31;7.20;99.90
24645;DHT22;12780;45.502;9.146;2022-12-07T16:10:57;7.20;99.90
24645;DHT22;12780;45.502;9.146;2022-12-07T16:13:23;7.10;99.90
24645;DHT22;12780;45.502;9.146;2022-12-07T16:15:48;7.20;99.90
24645;DHT22;12780;45.502;9.146;2022-12-07T16:18:14;7.10;99.90
24645;DHT22;12780;45.502;9.146;2022-12-07T16:20:40;7.10;99.90
24645;DHT22;12780;45.502;9.146;2022-12-07T16:23:05;7.00;99.90
24645;DHT22;12780;45.502;9.146;2022-12-07T16:25:31;7.00;99.90
24645;DHT22;12780;45.502;9.146;2022-12-07T16:27:56;7.00;99.90
24645;DHT22;12780;45.502;9.146;2022-12-07T16:30:22;7.00;99.90
24645;DHT22;12780;45.502;9.146;2022-12-07T16:32:47;6.90;99.90
24645;DHT22;12780;45.502;9.146;2022-12-07T16:35:13;6.90;99.90
24645;DHT22;12780;45.502;9.146;2022-12-07T16:37:41;6.90;99.90
24645;DHT22;12780;45.502;9.146;2022-12-07T16:40:07;6.80;99.90
24645;DHT22;12780;45.502;9.146;2022-12-07T16:42:34;6.70;99.90
24645;DHT22;12780;45.502;9.146;2022-12-07T16:45:00;6.70;99.90
24645;DHT22;12780;45.502;9.146;2022-12-07T16:47:26;6.80;99.90
24645;DHT22;12780;45.502;9.146;2022-12-07T16:49:52;6.80;99.90
24645;DHT22;12780;45.502;9.146;2022-12-07T16:52:18;6.80;99.90
24645;DHT22;12780;45.502;9.146;2022-12-07T16:54:44;6.80;99.90
24645;DHT22;12780;45.502;9.146;2022-12-07T16:57:10;6.80;99.90
24645;DHT22;12780;45.502;9.146;2022-12-07T16:59:35;6.60;99.90
24645;DHT22;12780;45.502;9.146;2022-12-07T17:02:01;6.60;99.90
24645;DHT22;12780;45.502;9.146;2022-12-07T17:04:27;6.60;99.90
24645;DHT22;12780;45.502;9.146;2022-12-07T17:06:53;6.60;99.90
24645;DHT22;12780;45.502;9.146;2022-12-07T17:09:19;6.60;99.90
24645;DHT22;12780;45.502;9.146;2022-12-07T17:11:44;6.60;99.90
24645;DHT22;12780;45.502;9.146;2022-12-07T17:14:10;6.40;99.90
24645;DHT22;12780;45.502;9.146;2022-12-07T17:16:55;6.40;99.90
24645;DHT22;12780;45.502;9.146;2022-12-07T17:19:21;6.30;99.90
24645;DHT22;12780;45.502;9.146;2022-12-07T17:21:47;6.30;99.90
24645;DHT22;12780;45.502;9.146;2022-12-07T17:24:15;6.40;99.90
24645;DHT22;12780;45.502;9.146;2022-12-07T17:26:42;6.50;99.90
24645;DHT22;12780;45.502;9.146;2022-12-07T17:29:09;6.50;99.90
24645;DHT22;12780;45.502;9.146;2022-12-07T17:31:36;6.50;99.90
24645;DHT22;12780;45.502;9.146;2022-12-07T17:34:02;6.50;99.90
24645;DHT22;12780;45.502;9.146;2022-12-07T17:36:30;6.50;99.90
24645;DHT22;12780;45.502;9.146;2022-12-07T17:38:56;6.50;99.90
24645;DHT22;12780;45.502;9.146;2022-12-07T17:41:24;6.50;99.90
24645;DHT22;12780;45.502;9.146;2022-12-07T17:44:11;6.50;99.90
24645;DHT22;12780;45.502;9.146;2022-12-07T17:46:38;6.60;99.90
24645;DHT22;12780;45.502;9.146;2022-12-07T17:49:05;6.60;99.90
24645;DHT22;12780;45.502;9.146;2022-12-07T17:51:31;6.50;99.90
24645;DHT22;12780;45.502;9.146;2022-12-07T17:54:15;6.60;99.90
24645;DHT22;12780;45.502;9.146;2022-12-07T17:56:41;6.60;99.90
24645;DHT22;12780;45.502;9.146;2022-12-07T17:59:07;6.50;99.90
24645;DHT22;12780;45.502;9.146;2022-12-07T18:01:34;6.60;99.90
24645;DHT22;12780;45.502;9.146;2022-12-07T18:04:00;6.50;99.90
24645;DHT22;12780;45.502;9.146;2022-12-07T18:06:26;6.50;99.90